Latest Weather Observations for Point Stuart

IDD60901

Issued at 11:45 am CST Thursday 21 August 2014 (issued every 10 minutes, with the page automatically refreshed every 10 minutes)

About weather observations | Map of Darwin area stations | Latest observations for Darwin area | Other Formats
Station Details ID: 014254 Name: POINT STUART Lat: -12.24 Lon: 131.88 Height: 1.0 m
Data from the previous 72 hours. | See also: Recent months for locations in Northern Territory
Date/Time
CST
Tmp

°C
App
Tmp
°C
Dew
Point
°C
Rel
Hum
%
Delta-T

°C
Wind Press
QNH
hPa
Press
MSL
hPa
Rain
since
9 am
mm
Dir
 
Spd
km/h
Gust
km/h
Spd
kts
Gust
kts
21/11:30am 28.8 24.0 7.4 26 11.5 E 22 32 12 17 1015.1 - 0.0
21/11:00am 27.5 22.5 7.9 29 10.6 E 24 32 13 17 1015.5 - 0.0
21/10:30am 27.6 22.7 8.5 30 10.4 ESE 24 33 13 18 1015.8 - 0.0
21/10:00am 26.2 21.4 8.7 33 9.5 SE 24 33 13 18 1015.9 - 0.0
21/09:30am 23.9 21.4 13.4 51 6.1 SE 19 26 10 14 1015.9 - 0.0
21/09:00am 22.5 20.5 14.9 62 4.5 SE 19 22 10 12 1015.8 1015.8 0.0
21/08:30am 21.2 20.6 15.7 71 3.3 SE 13 20 7 11 1015.4 - 0.0
21/08:00am 19.0 20.3 17.0 88 1.2 NNW 6 7 3 4 1014.9 - 0.0
21/07:30am 16.8 17.7 16.0 95 0.5 WSW 6 7 3 4 1014.4 - 0.0
21/07:00am 16.4 17.6 14.9 91 0.9 SSE 2 6 1 3 1013.9 - 0.0
21/06:30am 17.1 17.2 15.4 90 1.0 SSE 9 13 5 7 1013.7 - 0.0
21/06:00am 16.5 16.5 15.2 92 0.8 SSE 9 11 5 6 1013.6 1013.6 0.0
21/05:30am 16.6 16.7 15.5 93 0.6 SSE 9 11 5 6 1013.5 - 0.0
21/05:00am 16.3 15.7 14.5 89 1.0 SSE 11 13 6 7 1013.4 - 0.0
21/04:30am 15.9 16.1 14.8 93 0.6 S 7 9 4 5 1013.1 - 0.0
21/04:00am 15.6 16.0 14.8 95 0.5 S 6 7 3 4 1012.9 - 0.0
21/03:30am 15.8 16.2 14.7 93 0.6 SSW 6 7 3 4 1013.0 - 0.0
21/03:00am 16.5 17.1 15.4 93 0.6 S 6 7 3 4 1013.2 1013.2 0.0
21/02:30am 16.9 17.6 15.6 92 0.8 S 6 7 3 4 1013.6 - 0.0
21/02:00am 17.2 17.6 16.2 94 0.6 S 9 9 5 5 1013.7 - 0.0
21/01:30am 17.8 19.0 16.8 94 0.6 S 6 7 3 4 1014.0 - 0.0
21/01:00am 17.7 18.4 16.2 91 0.9 S 7 9 4 5 1014.2 - 0.0
21/12:30am 17.7 18.6 16.7 94 0.6 S 7 9 4 5 1014.6 - 0.0
21/12:00am 18.2 19.1 16.7 91 0.9 S 7 9 4 5 1014.6 1014.6 0.0
 
Date/Time
CST
Tmp

°C
App
Tmp
°C
Dew
Point
°C
Rel
Hum
%
Delta-T

°C
Wind Press
QNH
hPa
Press
MSL
hPa
Rain
since
9 am
mm
Dir
 
Spd
km/h
Gust
km/h
Spd
kts
Gust
kts
20/11:30pm 17.5 18.6 16.5 94 0.6 WNW 6 9 3 5 1014.5 - 0.0
20/11:00pm 18.1 19.0 17.5 96 0.4 WNW 9 9 5 5 1014.4 - 0.0
20/10:30pm 17.8 20.2 17.0 95 0.5 CALM 0 0 0 0 1014.3 - 0.0
20/10:00pm 17.2 18.9 15.2 88 1.2 CALM 0 0 0 0 1014.4 - 0.0
20/09:30pm 17.8 19.9 16.3 91 0.9 CALM 0 0 0 0 1014.2 - 0.0
20/09:00pm 18.5 19.4 16.1 86 1.4 WNW 6 6 3 3 1014.0 1014.0 0.0
20/08:30pm 19.3 21.2 15.8 80 2.1 CALM 0 0 0 0 1013.7 - 0.0
20/08:00pm 20.1 22.0 15.7 76 2.6 CALM 0 0 0 0 1013.3 - 0.0
20/07:30pm 21.2 22.1 16.0 72 3.1 WNW 6 6 3 3 1013.1 - 0.0
20/07:00pm 22.3 23.1 16.3 69 3.6 WNW 7 9 4 5 1012.7 - 0.0
20/06:30pm 24.3 24.4 15.5 58 5.3 WNW 9 9 5 5 1012.5 - 0.0
20/06:00pm 26.0 25.4 15.7 53 6.3 WNW 13 17 7 9 1012.4 1012.4 0.0
20/05:30pm 27.2 26.6 15.6 49 7.1 WNW 13 17 7 9 1012.3 - 0.0
20/05:00pm 27.6 26.6 14.6 45 7.8 N 13 20 7 11 1012.1 - 0.0
20/04:30pm 27.5 26.6 13.8 43 8.1 N 11 19 6 10 1012.1 - 0.0
20/04:00pm 27.6 26.0 13.9 43 8.2 N 15 24 8 13 1012.1 - 0.0
20/03:30pm 28.2 27.0 14.1 42 8.4 N 13 22 7 12 1012.3 - 0.0
20/03:00pm 28.1 25.6 12.4 37 9.1 N 17 22 9 12 1012.7 1012.7 0.0
20/02:30pm 28.3 26.1 12.2 37 9.4 NNE 15 22 8 12 1012.8 - 0.0
20/02:00pm 29.3 27.4 11.8 34 10.1 NNE 13 20 7 11 1013.3 - 0.0
20/01:30pm 29.9 27.7 10.9 31 10.9 NNE 13 19 7 10 1013.8 - 0.0
20/01:00pm 29.4 26.3 7.3 25 11.9 NNE 13 20 7 11 1014.4 - 0.0
20/12:30pm 29.1 25.4 6.5 24 12.0 NE 15 22 8 12 1015.1 - 0.0
20/12:00pm 27.7 24.8 8.1 29 10.6 E 13 20 7 11 1015.7 1015.7 0.0
20/11:30am 27.2 24.3 9.5 33 9.8 E 15 20 8 11 1016.0 - 0.0
20/11:00am 26.1 23.4 11.8 41 8.2 E 17 20 9 11 1016.3 - 0.0
20/10:30am 25.5 22.5 12.4 44 7.5 ENE 20 26 11 14 1016.7 - 0.0
20/10:00am 25.0 21.7 12.9 47 7.0 E 22 26 12 14 1016.9 - 0.0
20/09:30am 24.6 22.2 14.4 53 6.0 E 20 28 11 15 1016.7 - 0.0
20/09:00am 24.5 21.6 12.8 48 6.7 ENE 20 28 11 15 1016.6 1016.6 0.2
20/08:30am 24.2 22.2 14.9 56 5.5 ENE 19 26 10 14 1016.2 - 0.2
20/08:00am 23.0 23.1 19.2 79 2.4 ENE 17 22 9 12 1016.0 - 0.2
20/07:30am 20.3 22.1 20.3 100 0.0 NE 11 15 6 8 1015.8 - 0.2
20/07:00am 15.3 15.5 14.7 96 0.3 ENE 7 9 4 5 1015.5 - 0.2
20/06:30am 14.6 14.3 13.3 92 0.7 ENE 7 7 4 4 1015.3 - 0.2
20/06:00am 14.2 13.7 12.8 91 0.8 ENE 7 7 4 4 1015.2 1015.2 0.2
20/05:30am 14.2 13.9 12.6 90 0.9 ENE 6 7 3 4 1014.9 - 0.2
20/05:00am 13.7 12.7 12.3 91 0.8 ENE 9 11 5 6 1014.5 - 0.2
20/04:30am 13.4 11.9 11.8 90 0.9 ENE 11 11 6 6 1014.3 - 0.2
20/04:00am 13.6 14.2 12.0 90 0.9 CALM 0 4 0 2 1014.3 - 0.2
20/03:30am 13.9 13.9 12.3 90 0.9 SSW 4 6 2 3 1014.3 - 0.2
20/03:00am 14.7 14.5 11.7 82 1.6 SSW 4 9 2 5 1014.5 1014.5 0.2
20/02:30am 15.0 15.1 14.4 96 0.3 S 7 9 4 5 1014.6 - 0.2
20/02:00am 14.5 15.5 13.2 92 0.7 CALM 0 0 0 0 1014.4 - 0.2
20/01:30am 15.8 16.5 14.5 92 0.7 S 4 6 2 3 1014.5 - 0.2
20/01:00am 15.6 15.7 14.0 90 0.9 S 6 9 3 5 1014.5 - 0.2
20/12:30am 16.6 17.5 15.0 90 0.9 S 4 6 2 3 1014.8 - 0.2
20/12:00am 17.0 17.4 15.2 89 1.0 S 7 9 4 5 1015.1 1015.1 0.2
 
Date/Time
CST
Tmp

°C
App
Tmp
°C
Dew
Point
°C
Rel
Hum
%
Delta-T

°C
Wind Press
QNH
hPa
Press
MSL
hPa
Rain
since
9 am
mm
Dir
 
Spd
km/h
Gust
km/h
Spd
kts
Gust
kts
19/11:30pm 16.6 16.1 15.0 90 0.9 SW 11 17 6 9 1015.2 - 0.2
19/11:00pm 16.4 16.8 14.8 90 0.9 SW 6 7 3 4 1014.7 - 0.2
19/10:30pm 16.6 18.1 14.6 88 1.1 CALM 0 7 0 4 1014.4 - 0.2
19/10:00pm 16.6 17.1 14.1 85 1.4 SW 4 7 2 4 1014.3 - 0.2
19/09:30pm 16.9 16.9 13.6 81 1.9 SW 6 7 3 4 1014.0 - 0.2
19/09:00pm 18.5 19.1 15.4 82 1.8 SW 6 7 3 4 1014.0 1014.0 0.2
19/08:30pm 18.2 19.3 14.5 79 2.1 WNW 2 9 1 5 1013.8 - 0.2
19/08:00pm 19.4 20.7 14.2 72 3.0 CALM 0 0 0 0 1013.6 - 0.2
19/07:30pm 20.4 20.1 13.4 64 4.0 NW 7 9 4 5 1013.2 - 0.2
19/07:00pm 22.1 21.9 13.5 58 5.0 NNW 7 9 4 5 1012.8 - 0.2
19/06:30pm 24.2 23.5 13.1 50 6.4 NNW 9 13 5 7 1012.4 - 0.2
19/06:00pm 25.6 23.7 11.7 42 7.9 N 13 17 7 9 1012.3 1012.3 0.2
19/05:30pm 26.8 25.1 12.4 40 8.3 NNW 13 19 7 10 1012.4 - 0.2
19/05:00pm 27.0 24.9 12.3 40 8.5 NNW 15 22 8 12 1012.5 - 0.2
19/04:30pm 27.1 24.5 12.0 39 8.7 N 17 24 9 13 1012.7 - 0.2
19/04:00pm 28.1 25.5 10.8 34 9.8 N 15 22 8 12 1012.8 - 0.2
19/03:30pm 28.5 25.6 9.7 31 10.5 N 15 24 8 13 1012.9 - 0.0
19/03:00pm 28.5 25.6 11.1 34 9.9 NNE 17 28 9 15 1013.2 1013.2 0.0
19/02:30pm 28.9 25.9 9.1 29 11.0 N 15 26 8 14 1013.6 - 0.0
19/02:00pm 28.0 25.1 8.3 29 10.7 N 13 20 7 11 1014.1 - 0.0
19/01:30pm 28.5 25.2 8.2 28 11.1 NNE 15 26 8 14 1014.6 - 0.0
19/01:00pm 28.2 25.3 9.5 31 10.4 NE 15 24 8 13 1015.1 - 0.0
19/12:30pm 29.2 26.2 9.3 29 11.1 NE 15 26 8 14 1015.7 - 0.0
19/12:00pm 28.4 24.0 6.5 25 11.6 NE 19 26 10 14 1016.1 1016.1 0.0
19/11:30am 27.2 22.7 7.1 28 10.7 ENE 20 30 11 16 1016.6 - 0.0
19/11:00am 27.2 22.3 7.1 28 10.7 E 22 28 12 15 1016.8 - 0.0
19/10:30am 26.8 23.4 10.5 36 9.1 E 19 24 10 13 1017.2 - 0.0
19/10:00am 25.5 23.4 12.4 44 7.5 E 15 20 8 11 1017.6 - 0.0
19/09:30am 24.2 21.7 12.2 47 6.8 E 17 20 9 11 1017.6 - 0.0
19/09:00am 22.8 19.5 10.9 47 6.6 E 19 24 10 13 1017.6 1017.6 1.0
19/08:30am 21.3 19.2 13.5 61 4.5 ESE 17 20 9 11 1017.4 - 1.0
19/08:00am 19.7 19.0 15.4 76 2.5 ESE 13 15 7 8 1017.2 - 1.0
19/07:30am 17.7 17.8 16.4 92 0.8 ESE 11 13 6 7 1016.8 - 1.0
19/07:00am 14.1 13.4 13.1 94 0.6 ESE 9 15 5 8 1016.4 - 1.0
19/06:30am 14.5 14.8 13.5 94 0.6 S 4 7 2 4 1016.2 - 1.0
19/06:00am 14.4 15.0 13.1 92 0.7 SSE 2 6 1 3 1015.9 1015.9 1.0
19/05:30am 15.0 15.9 12.9 87 1.2 CALM 0 0 0 0 1015.7 - 1.0
19/05:00am 14.7 14.6 13.2 91 0.8 SE 6 7 3 4 1015.7 - 1.0
19/04:30am 13.7 13.2 12.6 93 0.6 ESE 7 15 4 8 1015.6 - 1.0
19/04:00am 14.3 15.1 12.7 90 0.9 CALM 0 0 0 0 1015.3 - 1.0
19/03:30am 15.5 15.5 13.7 89 1.0 SSW 6 7 3 4 1015.3 - 1.0
19/03:00am 15.4 15.5 13.9 91 0.8 SSW 6 7 3 4 1015.5 1015.5 1.0
19/02:30am 15.0 15.9 12.9 87 1.2 CALM 0 4 0 2 1015.5 - 1.0
19/02:00am 16.2 16.2 13.5 84 1.5 SSE 6 7 3 4 1015.6 - 1.0
19/01:30am 17.2 17.5 15.0 87 1.3 S 7 7 4 4 1015.6 - 1.0
19/01:00am 17.0 17.3 15.0 88 1.2 S 7 11 4 6 1015.8 - 1.0
19/12:30am 16.9 17.0 15.4 91 0.9 S 9 9 5 5 1015.9 - 1.0
19/12:00am 16.3 15.9 15.3 94 0.6 SSW 11 11 6 6 1015.9 1015.9 1.0
 
Date/Time
CST
Tmp

°C
App
Tmp
°C
Dew
Point
°C
Rel
Hum
%
Delta-T

°C
Wind Press
QNH
hPa
Press
MSL
hPa
Rain
since
9 am
mm
Dir
 
Spd
km/h
Gust
km/h
Spd
kts
Gust
kts
18/11:30pm 16.4 16.8 15.3 93 0.6 S 7 11 4 6 1015.8 - 1.0
18/11:00pm 16.5 17.6 15.5 94 0.6 ENE 4 6 2 3 1015.7 - 1.0
18/10:30pm 16.2 17.5 14.0 87 1.2 CALM 0 0 0 0 1015.7 - 1.0
18/10:00pm 16.2 16.0 13.1 82 1.7 ENE 6 9 3 5 1015.6 - 1.0
18/09:30pm 17.9 17.9 14.2 79 2.1 SSW 7 9 4 5 1015.4 - 1.0
18/09:00pm 19.0 19.6 15.9 82 1.8 S 7 7 4 4 1015.1 1015.1 1.0
18/08:30pm 18.8 19.2 15.3 80 2.1 S 7 7 4 4 1014.7 - 1.0
18/08:00pm 19.6 21.0 14.4 72 3.0 CALM 0 0 0 0 1014.4 - 1.0
18/07:30pm 20.8 21.1 14.5 67 3.7 SW 6 7 3 4 1014.1 - 0.8
18/07:00pm 21.6 21.7 14.5 64 4.2 W 7 7 4 4 1013.9 - 0.8
18/06:30pm 23.9 24.2 15.1 58 5.3 W 7 9 4 5 1013.7 - 0.8
18/06:00pm 25.9 25.6 14.4 49 6.9 NNW 9 13 5 7 1013.4 1013.4 0.8
18/05:30pm 26.5 25.2 12.5 41 8.1 NNW 11 17 6 9 1013.3 - 0.8
18/05:00pm 27.4 25.4 11.4 37 9.1 N 13 19 7 10 1013.2 - 0.8
18/04:30pm 27.9 25.8 11.0 35 9.6 N 13 19 7 10 1013.1 - 0.8
18/04:00pm 28.2 25.6 9.5 31 10.4 N 13 22 7 12 1013.0 - 0.8
18/03:30pm 29.0 26.2 7.0 25 11.8 N 11 19 6 10 1013.2 - 0.0
18/03:00pm 28.4 25.1 8.1 28 11.0 N 15 22 8 12 1013.6 1013.6 0.0
18/02:30pm 29.1 25.8 8.2 27 11.4 N 15 22 8 12 1013.8 - 0.0
18/02:00pm 28.4 25.0 7.6 27 11.2 N 15 20 8 11 1014.1 - 0.0
18/01:30pm 29.3 26.1 8.4 27 11.5 NE 15 24 8 13 1014.5 - 0.0
18/01:00pm 29.2 24.8 7.2 25 11.8 NE 20 28 11 15 1015.1 - 0.0
18/12:30pm 28.6 22.9 2.7 19 12.8 ENE 22 30 12 16 1015.6 - 0.0
18/12:00pm 28.2 22.5 3.1 20 12.5 E 22 32 12 17 1016.0 1016.0 0.0

Latest Capital City Observations: Canberra | Sydney | Melbourne | Brisbane | Adelaide | Perth | Hobart | Darwin

Other Formats:

Comma delimited format used in spreadsheet applications
http://www.bom.gov.au/fwo/IDD60901/IDD60901.94127.axf

JavaScript Object Notation format (JSON) in row-major order
http://www.bom.gov.au/fwo/IDD60901/IDD60901.94127.json